Time;durP1;ratioP1;P1;durP2;ratioP2;P2;SDS_P1;SDS_P2;PMS_P1;PMS_P2;Temp;Humidity;BMP_temperature;BMP_pressure;BME280_temperature;BME280_humidity;BME280_pressure;Samples;Min_cycle;Max_cycle;Signal;HPM_P1;HPM_P2
2022/11/18 00:01:08;;;;;;;3.10;0.60;;;21.60;64.90;;;;;;5092608;28;20878;-82
2022/11/18 00:03:36;;;;;;;2.33;0.50;;;21.40;64.20;;;;;;5078046;28;20365;-81
2022/11/18 00:06:03;;;;;;;2.27;0.50;;;21.30;61.80;;;;;;5092560;28;20384;-81
2022/11/18 00:08:30;;;;;;;2.10;0.50;;;21.80;62.90;;;;;;5092510;28;20794;-81
2022/11/18 00:10:58;;;;;;;3.15;0.70;;;22.30;61.20;;;;;;5092405;28;20396;-88
2022/11/18 00:16:12;;;;;;;2.10;0.37;;;22.20;62.70;;;;;;5092332;28;20500;-86
2022/11/18 00:18:39;;;;;;;1.67;0.50;;;22.80;60.30;;;;;;5077947;28;20744;-83
2022/11/18 00:21:11;;;;;;;1.10;0.40;;;23.30;59.90;;;;;;5092280;28;20373;-84
2022/11/18 00:23:38;;;;;;;2.53;0.50;;;23.70;56.80;;;;;;5092109;28;20517;-82
2022/11/18 00:26:12;;;;;;;1.88;0.50;;;23.70;54.70;;;;;;5092129;28;20430;-85
2022/11/18 00:28:40;;;;;;;3.67;0.80;;;23.40;57.00;;;;;;5091922;28;20376;-83
2022/11/18 00:31:09;;;;;;;2.17;0.50;;;23.60;57.30;;;;;;5077807;28;20392;-85
2022/11/18 00:33:37;;;;;;;5.30;1.00;;;23.60;56.30;;;;;;5091931;28;20504;-81
2022/11/18 00:36:05;;;;;;;4.75;0.90;;;23.10;56.90;;;;;;5091458;28;20371;-82
2022/11/18 00:38:32;;;;;;;2.58;0.60;;;22.80;57.60;;;;;;5082233;28;20385;-81
2022/11/18 00:41:13;;;;;;;2.90;0.60;;;22.20;57.80;;;;;;5087048;28;20371;-82
2022/11/18 00:43:41;;;;;;;2.65;0.68;;;21.80;61.40;;;;;;5091829;28;20716;-88
2022/11/18 00:46:10;;;;;;;1.85;0.57;;;21.80;59.50;;;;;;5090957;28;20373;-81
2022/11/18 00:48:38;;;;;;;2.17;0.50;;;22.40;57.70;;;;;;5091699;28;20375;-82
2022/11/18 00:51:15;;;;;;;1.08;0.50;;;22.70;58.30;;;;;;5091437;28;20392;-84
2022/11/18 00:53:42;;;;;;;1.58;0.50;;;23.30;57.20;;;;;;5091493;28;20874;-82
2022/11/18 00:56:10;;;;;;;2.38;0.50;;;23.10;56.50;;;;;;5091502;28;20716;-82
2022/11/18 00:58:37;;;;;;;3.28;0.60;;;23.00;58.00;;;;;;5091634;28;20373;-82
2022/11/18 01:01:05;;;;;;;3.13;0.60;;;22.90;57.20;;;;;;5091254;28;20377;-83
2022/11/18 01:03:32;;;;;;;1.98;0.50;;;22.90;60.50;;;;;;5091467;28;20880;-82
2022/11/18 01:05:59;;;;;;;1.48;0.57;;;22.90;57.70;;;;;;5073195;28;20760;-87
2022/11/18 01:08:26;;;;;;;1.90;0.50;;;22.50;59.20;;;;;;5091457;28;20839;-85
2022/11/18 01:10:53;;;;;;;2.92;0.70;;;22.40;58.10;;;;;;5091281;28;20396;-81
2022/11/18 01:13:22;;;;;;;4.95;0.70;;;22.60;58.00;;;;;;5091141;28;20381;-81
2022/11/18 01:15:51;;;;;;;2.03;0.50;;;22.90;58.20;;;;;;5091077;28;20357;-86
2022/11/18 01:18:20;;;;;;;1.08;0.40;;;23.70;56.30;;;;;;5091019;28;20434;-86
2022/11/18 01:20:47;;;;;;;1.13;0.50;;;24.70;55.20;;;;;;5090833;28;20441;-81
2022/11/18 01:23:14;;;;;;;1.85;0.55;;;24.80;53.30;;;;;;5091084;28;20824;-81
2022/11/18 01:28:22;;;;;;;3.35;0.52;;;23.70;55.40;;;;;;5051156;28;20446;-84
2022/11/18 01:30:51;;;;;;;1.70;0.50;;;23.90;55.20;;;;;;5053053;28;20407;-84
2022/11/18 01:33:24;;;;;;;4.65;0.75;;;24.80;53.10;;;;;;5054448;28;20395;-82
2022/11/18 01:35:50;;;;;;;0.98;0.40;;;25.50;52.00;;;;;;5054112;28;20900;-81
2022/11/18 01:38:17;;;;;;;2.00;0.50;;;25.50;53.00;;;;;;5053325;28;20864;-82
2022/11/18 01:40:44;;;;;;;2.30;0.50;;;25.80;51.60;;;;;;5055359;28;20376;-81
2022/11/18 01:43:16;;;;;;;1.70;0.50;;;26.20;50.20;;;;;;5053632;28;20927;-81
2022/11/18 01:45:46;;;;;;;2.90;0.60;;;26.70;49.40;;;;;;5053169;28;20371;-81
2022/11/18 01:48:16;;;;;;;5.05;0.52;;;25.60;50.90;;;;;;5054159;28;20388;-81
2022/11/18 01:50:50;;;;;;;1.88;0.50;;;24.80;51.40;;;;;;5057841;28;20459;-81
2022/11/18 01:53:24;;;;;;;1.30;0.50;;;24.60;53.00;;;;;;5057314;28;20380;-81
2022/11/18 01:55:53;;;;;;;0.60;0.40;;;25.30;51.90;;;;;;5056526;28;20372;-83
2022/11/18 01:58:37;;;;;;;2.10;0.50;;;25.70;51.00;;;;;;5055217;28;20879;-83
2022/11/18 02:01:05;;;;;;;3.13;0.57;;;26.30;52.00;;;;;;5052811;28;20391;-80
2022/11/18 02:03:33;;;;;;;2.65;0.65;;;27.30;49.60;;;;;;5053232;28;20472;-81
2022/11/18 02:06:03;;;;;;;2.20;0.68;;;27.00;49.00;;;;;;5057426;28;20376;-79
2022/11/18 02:08:31;;;;;;;2.10;0.57;;;27.30;49.20;;;;;;5053499;28;20391;-80
2022/11/18 02:10:58;;;;;;;1.48;0.50;;;28.00;47.10;;;;;;5052085;28;20391;-80
2022/11/18 02:13:25;;;;;;;2.70;0.50;;;27.30;49.20;;;;;;5052510;28;20399;-81
2022/11/18 02:16:14;;;;;;;1.75;0.60;;;26.60;49.80;;;;;;5068425;22;20445;-83
2022/11/18 02:18:42;;;;;;;2.67;0.60;;;26.20;49.80;;;;;;5052741;28;20476;-84
2022/11/18 02:21:28;;;;;;;3.42;0.80;;;25.70;51.30;;;;;;5070597;28;20393;-86
2022/11/18 02:24:12;;;;;;;5.90;0.80;;;25.50;51.40;;;;;;5073627;28;20370;-87
2022/11/18 02:26:47;;;;;;;3.63;0.90;;;25.10;53.00;;;;;;5078753;22;20416;-87
2022/11/18 02:29:20;;;;;;;1.65;0.60;;;24.90;52.50;;;;;;5054114;28;20372;-82
2022/11/18 02:31:57;;;;;;;1.95;0.70;;;24.60;53.90;;;;;;5038838;28;20768;-84
2022/11/18 02:35:02;;;;;;;1.98;0.60;;;24.30;54.00;;;;;;5060392;28;20388;-83
2022/11/18 02:37:39;;;;;;;1.50;0.60;;;24.00;54.00;;;;;;5052999;28;20383;-86
2022/11/18 02:40:25;;;;;;;2.47;0.60;;;24.20;54.90;;;;;;5051892;28;20368;-87
2022/11/18 02:43:07;;;;;;;1.85;0.60;;;25.70;53.00;;;;;;5029425;28;20402;-86
2022/11/18 02:45:36;;;;;;;2.40;0.57;;;27.50;50.00;;;;;;5031811;28;20369;-87
2022/11/18 02:48:08;;;;;;;1.77;0.60;;;29.00;46.90;;;;;;5050674;28;20934;-84
2022/11/18 02:50:37;;;;;;;1.67;0.50;;;28.70;46.40;;;;;;5056263;28;20448;-85
2022/11/18 02:53:06;;;;;;;1.70;0.50;;;27.80;46.70;;;;;;5055801;28;20383;-85
2022/11/18 02:55:37;;;;;;;1.30;0.65;;;26.40;48.40;;;;;;5070220;28;20718;-85
2022/11/18 02:58:05;;;;;;;1.08;0.57;;;26.30;50.10;;;;;;5056025;28;20423;-86
2022/11/18 03:00:33;;;;;;;1.38;0.50;;;26.80;48.50;;;;;;5059220;28;20521;-89
2022/11/18 03:03:20;;;;;;;1.77;0.47;;;26.50;48.40;;;;;;5066861;28;20381;-84
2022/11/18 03:06:01;;;;;;;0.90;0.50;;;27.00;48.60;;;;;;5069958;28;20389;-81
2022/11/18 03:08:38;;;;;;;2.33;0.55;;;27.80;47.50;;;;;;5053005;28;20401;-80
2022/11/18 03:11:28;;;;;;;2.95;0.70;;;27.90;48.30;;;;;;5074752;28;20397;-84
2022/11/18 03:14:26;;;;;;;2.30;0.63;;;28.80;47.70;;;;;;5066289;28;20430;-86
2022/11/18 03:17:25;;;;;;;1.40;0.60;;;29.70;46.40;;;;;;5069585;28;20467;-84
2022/11/18 03:20:19;;;;;;;2.70;0.80;;;29.50;45.20;;;;;;5029824;28;20451;-84
2022/11/18 03:23:24;;;;;;;2.20;0.60;;;29.30;47.60;;;;;;5034883;28;20385;-86
2022/11/18 03:26:01;;;;;;;2.10;0.65;;;28.80;47.60;;;;;;4979211;28;20383;-83
2022/11/18 03:28:33;;;;;;;3.10;0.70;;;27.70;47.70;;;;;;4975400;28;20962;-85
2022/11/18 03:31:15;;;;;;;1.75;0.70;;;26.70;49.90;;;;;;4967463;28;20408;-85
2022/11/18 03:33:56;;;;;;;3.22;0.70;;;26.00;51.60;;;;;;4969262;28;20383;-86
2022/11/18 03:36:27;;;;;;;3.03;0.60;;;25.10;52.60;;;;;;4961160;28;20398;-82
2022/11/18 03:38:58;;;;;;;4.05;0.80;;;25.10;53.70;;;;;;4970294;28;20379;-85
2022/11/18 03:41:27;;;;;;;1.27;0.70;;;25.60;51.90;;;;;;4973334;28;20452;-82
2022/11/18 03:44:19;;;;;;;1.27;0.60;;;25.60;52.40;;;;;;4984595;28;20379;-83
2022/11/18 03:47:01;;;;;;;2.90;0.70;;;26.70;52.30;;;;;;4975752;28;20867;-85
2022/11/18 03:49:35;;;;;;;3.75;0.80;;;28.40;50.60;;;;;;4948140;28;20437;-83
2022/11/18 03:52:19;;;;;;;4.10;0.80;;;28.90;49.20;;;;;;4971364;28;20410;-84
2022/11/18 03:54:49;;;;;;;5.32;1.00;;;29.90;47.60;;;;;;4968171;28;20458;-83
2022/11/18 03:57:46;;;;;;;2.65;1.00;;;30.50;48.60;;;;;;5058879;28;20370;-85
2022/11/18 04:00:15;;;;;;;3.83;0.80;;;31.10;47.70;;;;;;5072358;28;20484;-83
2022/11/18 04:02:43;;;;;;;2.25;0.70;;;30.20;46.20;;;;;;5072292;28;20385;-84
2022/11/18 04:05:12;;;;;;;2.25;0.75;;;28.80;47.20;;;;;;5054321;28;20741;-81
2022/11/18 04:07:49;;;;;;;4.28;0.80;;;28.90;49.40;;;;;;5072176;28;20370;-82
2022/11/18 04:10:48;;;;;;;3.15;0.90;;;29.60;47.80;;;;;;5054247;28;20719;-84
2022/11/18 04:13:22;;;;;;;2.17;0.70;;;29.00;48.00;;;;;;5072220;28;20378;-82
2022/11/18 04:15:50;;;;;;;2.75;0.77;;;28.50;50.00;;;;;;5072120;28;20382;-83
2022/11/18 04:18:17;;;;;;;4.03;0.80;;;28.90;49.80;;;;;;5071887;28;20383;-83
2022/11/18 04:20:44;;;;;;;4.33;0.77;;;29.60;48.90;;;;;;5070630;28;20401;-84
2022/11/18 04:23:11;;;;;;;2.05;0.73;;;30.60;47.50;;;;;;5057693;28;20874;-85
2022/11/18 04:25:38;;;;;;;2.70;0.80;;;31.10;47.10;;;;;;5071813;28;20431;-90
2022/11/18 04:28:05;;;;;;;4.05;0.85;;;31.10;46.30;;;;;;5071476;28;20394;-83
2022/11/18 04:30:33;;;;;;;2.10;0.90;;;30.80;46.70;;;;;;5071658;28;20379;-84
2022/11/18 04:33:00;;;;;;;2.67;0.80;;;30.00;47.60;;;;;;5071759;28;20389;-83
2022/11/18 04:35:28;;;;;;;1.95;0.70;;;29.90;48.20;;;;;;5068634;28;20374;-86
2022/11/18 04:37:55;;;;;;;2.88;0.80;;;29.70;47.80;;;;;;5063049;28;20936;-88
2022/11/18 04:40:23;;;;;;;2.10;0.70;;;29.90;47.10;;;;;;5058016;28;20722;-85
2022/11/18 04:42:50;;;;;;;4.85;0.90;;;30.10;47.90;;;;;;5059653;28;20816;-85
2022/11/18 04:45:17;;;;;;;4.80;1.00;;;29.70;47.20;;;;;;5054873;28;20401;-84
2022/11/18 04:47:44;;;;;;;3.10;0.77;;;31.50;46.80;;;;;;5071806;28;20398;-86
2022/11/18 04:50:11;;;;;;;3.20;0.80;;;31.80;46.40;;;;;;5074117;22;20421;-87
2022/11/18 04:52:38;;;;;;;2.95;0.90;;;31.20;46.40;;;;;;5014542;28;20471;-84
2022/11/18 04:55:05;;;;;;;2.63;0.77;;;30.40;47.30;;;;;;5032793;28;20476;-86
2022/11/18 04:57:32;;;;;;;3.20;0.90;;;29.50;48.50;;;;;;5034094;28;20379;-91
2022/11/18 04:59:59;;;;;;;2.65;0.80;;;29.40;48.80;;;;;;5033381;28;20400;-89
2022/11/18 05:02:26;;;;;;;1.95;0.80;;;28.70;49.20;;;;;;5023120;28;20394;-92
2022/11/18 05:04:53;;;;;;;3.47;0.88;;;28.90;50.00;;;;;;5014463;28;20426;-87
2022/11/18 05:07:20;;;;;;;2.20;0.80;;;29.60;49.10;;;;;;5032425;28;20741;-89
2022/11/18 05:09:47;;;;;;;6.57;0.70;;;30.30;48.80;;;;;;5037921;28;20384;-84
2022/11/18 05:15:00;;;;;;;4.80;0.80;;;30.90;47.60;;;;;;5036485;28;20424;-86
2022/11/18 05:17:27;;;;;;;4.13;0.80;;;30.80;48.00;;;;;;5034257;28;20385;-88
2022/11/18 05:19:54;;;;;;;1.73;0.70;;;30.30;47.30;;;;;;5043601;28;20388;-85
2022/11/18 05:22:21;;;;;;;3.03;0.90;;;28.50;49.10;;;;;;5035941;28;20393;-85
2022/11/18 05:24:49;;;;;;;3.40;0.80;;;27.30;50.90;;;;;;5013969;28;20738;-86
2022/11/18 05:27:16;;;;;;;1.98;0.75;;;26.90;52.80;;;;;;5015078;28;20424;-89
2022/11/18 05:29:43;;;;;;;2.65;0.77;;;27.60;51.50;;;;;;5051806;28;20448;-86
2022/11/18 05:32:11;;;;;;;2.60;0.80;;;28.40;50.70;;;;;;5051308;28;20400;-85
2022/11/18 05:34:38;;;;;;;2.65;0.70;;;29.10;49.50;;;;;;5052463;28;20493;-84
2022/11/18 05:37:05;;;;;;;2.30;0.80;;;29.80;48.70;;;;;;5055642;28;20391;-83
2022/11/18 05:39:33;;;;;;;2.67;0.77;;;30.20;48.00;;;;;;5058510;28;20368;-89
2022/11/18 05:44:46;;;;;;;2.75;0.90;;;30.00;47.80;;;;;;5037560;28;20379;-81
2022/11/18 05:47:13;;;;;;;2.95;0.70;;;30.00;48.00;;;;;;5033697;28;20396;-87
2022/11/18 05:49:40;;;;;;;2.45;0.82;;;30.00;47.70;;;;;;5036361;28;20379;-83
2022/11/18 05:52:07;;;;;;;2.33;0.70;;;30.20;48.00;;;;;;5041424;28;20526;-82
2022/11/18 05:54:37;;;;;;;2.70;0.80;;;29.90;47.60;;;;;;5042548;28;20393;-84
2022/11/18 05:57:04;;;;;;;3.60;0.80;;;29.60;48.80;;;;;;5042288;28;20786;-89
2022/11/18 05:59:33;;;;;;;1.55;0.70;;;29.40;49.30;;;;;;5049891;28;20748;-83
2022/11/18 06:02:06;;;;;;;2.40;0.70;;;29.70;48.60;;;;;;5042766;28;20401;-84
2022/11/18 06:05:05;;;;;;;2.17;0.82;;;30.00;48.00;;;;;;5045644;28;20395;-86
2022/11/18 06:07:40;;;;;;;3.20;0.90;;;30.20;47.80;;;;;;4942897;29;20404;-89
2022/11/18 06:10:09;;;;;;;2.70;0.70;;;30.20;47.80;;;;;;4950073;29;20396;-82
2022/11/18 06:12:41;;;;;;;2.88;0.70;;;30.40;47.50;;;;;;4935537;29;20911;-83
2022/11/18 06:15:25;;;;;;;2.65;0.70;;;30.20;47.60;;;;;;4943576;29;20422;-87
2022/11/18 06:17:58;;;;;;;3.85;0.80;;;29.80;47.70;;;;;;4935248;29;20433;-82
2022/11/18 06:20:25;;;;;;;2.03;0.90;;;29.70;47.90;;;;;;4941806;29;20427;-85
2022/11/18 06:22:55;;;;;;;1.80;0.67;;;29.30;48.60;;;;;;4930885;29;20421;-83
2022/11/18 06:25:23;;;;;;;2.58;0.90;;;28.80;49.50;;;;;;4938580;29;20480;-85
2022/11/18 06:27:51;;;;;;;1.67;0.80;;;28.60;49.70;;;;;;4935988;29;20402;-87
2022/11/18 06:30:18;;;;;;;2.47;0.80;;;28.50;49.00;;;;;;4931169;29;20492;-81
2022/11/18 06:32:48;;;;;;;2.40;0.80;;;28.50;49.00;;;;;;4930827;29;20918;-90
2022/11/18 06:35:15;;;;;;;2.40;0.90;;;28.90;48.60;;;;;;4935278;29;20398;-88
2022/11/18 06:37:42;;;;;;;2.45;0.75;;;28.80;49.10;;;;;;4941156;29;20423;-88
2022/11/18 06:40:10;;;;;;;2.80;0.70;;;29.00;49.00;;;;;;4930464;29;20426;-82
2022/11/18 06:45:22;;;;;;;4.60;1.00;;;28.80;49.00;;;;;;5046757;28;20480;-89
2022/11/18 06:47:49;;;;;;;2.47;1.00;;;28.70;49.40;;;;;;5039098;28;20389;-85
2022/11/18 06:50:16;;;;;;;2.15;0.80;;;28.60;49.90;;;;;;5044722;28;20863;-86
2022/11/18 06:52:43;;;;;;;3.75;1.88;;;28.60;49.80;;;;;;5033493;28;20416;-84
2022/11/18 06:55:10;;;;;;;2.33;1.10;;;28.30;50.50;;;;;;5041105;28;20447;-85
2022/11/18 06:57:37;;;;;;;3.65;0.80;;;27.90;50.70;;;;;;5042795;28;20389;-86
2022/11/18 07:00:05;;;;;;;1.90;0.70;;;27.70;50.70;;;;;;5043133;28;20422;-84
2022/11/18 07:02:35;;;;;;;3.67;0.82;;;27.50;50.90;;;;;;5037066;28;20478;-89
2022/11/18 07:05:02;;;;;;;2.53;0.70;;;27.30;50.60;;;;;;5039919;28;20388;-82
2022/11/18 07:07:29;;;;;;;1.93;0.80;;;27.10;52.00;;;;;;5031827;28;20440;-89
2022/11/18 07:09:56;;;;;;;1.77;0.90;;;26.90;51.50;;;;;;5034417;28;20377;-83
2022/11/18 07:12:23;;;;;;;3.17;0.90;;;26.70;52.20;;;;;;5033909;28;20793;-86
2022/11/18 07:14:50;;;;;;;2.67;0.90;;;26.70;52.70;;;;;;5047276;28;20416;-84
2022/11/18 07:17:17;;;;;;;3.03;1.30;;;26.40;52.90;;;;;;5035632;28;20869;-84
2022/11/18 07:19:44;;;;;;;3.08;1.35;;;26.00;53.70;;;;;;5037480;28;20451;-82
2022/11/18 07:22:11;;;;;;;81.93;66.80;;;26.00;53.70;;;;;;5035326;28;20401;-84
2022/11/18 07:24:39;;;;;;;48.85;37.38;;;26.00;54.50;;;;;;5032543;28;20400;-85
2022/11/18 07:27:06;;;;;;;117.40;90.30;;;26.00;54.10;;;;;;5038593;28;20412;-83
2022/11/18 07:29:33;;;;;;;27.70;17.73;;;25.70;55.00;;;;;;5024767;28;20437;-90
2022/11/18 07:32:00;;;;;;;16.02;11.30;;;25.70;55.60;;;;;;5062292;22;20463;-83
2022/11/18 07:34:27;;;;;;;10.63;6.72;;;25.70;56.10;;;;;;5037836;28;20805;-84
2022/11/18 07:36:54;;;;;;;9.30;4.15;;;25.70;56.20;;;;;;5033373;28;20381;-83
2022/11/18 07:39:21;;;;;;;22.07;16.80;;;25.50;56.00;;;;;;5032999;28;20389;-84
2022/11/18 07:41:48;;;;;;;8.23;5.45;;;25.10;57.10;;;;;;5033460;28;20416;-82
2022/11/18 07:44:16;;;;;;;6.10;4.73;;;24.90;56.80;;;;;;5034472;28;20749;-83
2022/11/18 07:46:43;;;;;;;6.13;4.53;;;24.70;56.90;;;;;;5040528;28;20877;-84
2022/11/18 07:49:11;;;;;;;7.28;5.47;;;24.40;57.10;;;;;;5034464;28;20385;-84
2022/11/18 07:51:39;;;;;;;9.73;6.28;;;23.80;58.60;;;;;;5034109;28;20413;-82
2022/11/18 07:54:12;;;;;;;6.30;4.07;;;23.20;60.00;;;;;;5033880;28;20370;-85
2022/11/18 07:56:39;;;;;;;18.58;12.13;;;22.60;61.30;;;;;;5033573;28;20465;-85
2022/11/18 07:59:06;;;;;;;12.73;9.33;;;22.00;63.40;;;;;;5033439;28;20389;-84
2022/11/18 08:01:33;;;;;;;30.48;21.17;;;21.70;65.10;;;;;;5033428;28;20393;-88
2022/11/18 08:04:11;;;;;;;11.73;8.10;;;21.40;66.30;;;;;;5033508;28;20385;-84
2022/11/18 08:06:38;;;;;;;4.20;1.83;;;21.10;67.40;;;;;;5044405;28;20471;-83
2022/11/18 08:09:06;;;;;;;3.92;1.30;;;20.80;68.20;;;;;;5034221;28;20393;-86
2022/11/18 08:11:34;;;;;;;6.85;4.07;;;20.60;68.90;;;;;;5026259;28;20408;-87
2022/11/18 08:14:01;;;;;;;5.03;1.55;;;20.30;70.20;;;;;;5032449;28;20412;-85
2022/11/18 08:16:28;;;;;;;9.18;3.42;;;20.10;70.70;;;;;;5057428;22;20467;-87
2022/11/18 08:18:57;;;;;;;8.10;5.13;;;20.00;71.50;;;;;;5052163;28;20392;-86
2022/11/18 08:21:24;;;;;;;6.03;2.92;;;19.90;71.80;;;;;;5052153;28;20406;-82
2022/11/18 08:23:54;;;;;;;4.88;2.13;;;19.70;72.60;;;;;;5035487;28;20388;-86
2022/11/18 08:26:21;;;;;;;5.57;2.50;;;19.50;73.00;;;;;;5052949;28;20387;-83
2022/11/18 08:28:49;;;;;;;3.83;2.17;;;19.40;73.80;;;;;;5052359;28;20384;-83
2022/11/18 08:31:19;;;;;;;10.15;5.25;;;19.30;74.20;;;;;;5053001;28;20553;-88
2022/11/18 08:33:47;;;;;;;4.30;1.63;;;19.20;74.90;;;;;;5053471;28;20391;-87
2022/11/18 08:36:20;;;;;;;8.63;4.97;;;19.20;75.50;;;;;;5052092;28;20417;-84
2022/11/18 08:38:47;;;;;;;7.20;2.67;;;19.20;76.00;;;;;;5044683;28;20877;-89
2022/11/18 08:41:22;;;;;;;3.93;2.00;;;19.10;76.90;;;;;;5033525;28;20448;-86
2022/11/18 08:43:49;;;;;;;6.22;1.60;;;18.90;77.50;;;;;;5046520;28;20399;-83
2022/11/18 08:46:15;;;;;;;4.60;2.30;;;18.80;78.60;;;;;;5053749;28;20395;-85
2022/11/18 08:48:42;;;;;;;6.00;2.33;;;18.70;79.80;;;;;;5067182;28;20390;-82
2022/11/18 08:51:12;;;;;;;5.80;2.38;;;18.60;81.30;;;;;;5051530;28;20409;-85
2022/11/18 08:53:39;;;;;;;4.47;1.60;;;18.50;82.20;;;;;;5051510;28;20392;-81
2022/11/18 08:56:07;;;;;;;4.43;1.45;;;18.40;83.60;;;;;;5050865;28;20383;-83
2022/11/18 08:58:34;;;;;;;3.78;1.25;;;18.40;84.40;;;;;;5049588;28;20380;-86
2022/11/18 09:01:08;;;;;;;6.72;1.50;;;18.30;85.40;;;;;;5063199;28;20388;-84
2022/11/18 09:03:35;;;;;;;5.28;2.60;;;18.20;87.90;;;;;;5050534;28;20413;-83
2022/11/18 09:06:23;;;;;;;4.82;2.30;;;18.20;90.00;;;;;;5050341;28;20375;-82
2022/11/18 09:08:51;;;;;;;5.37;1.60;;;18.10;91.10;;;;;;5049059;28;20366;-86
2022/11/18 09:11:21;;;;;;;5.40;2.47;;;18.10;92.10;;;;;;5052965;28;20407;-83
2022/11/18 09:13:56;;;;;;;6.75;3.10;;;18.10;93.30;;;;;;5069311;28;20392;-82
2022/11/18 09:16:25;;;;;;;7.25;1.67;;;18.10;93.50;;;;;;5059047;28;20431;-87
2022/11/18 09:18:52;;;;;;;6.68;2.42;;;18.10;94.30;;;;;;5045773;28;20387;-84
2022/11/18 09:21:19;;;;;;;7.50;3.22;;;17.90;94.90;;;;;;5050298;28;20384;-84
2022/11/18 09:23:46;;;;;;;6.38;2.83;;;17.80;95.90;;;;;;5050830;28;20953;-85
2022/11/18 09:26:18;;;;;;;8.43;2.80;;;17.70;96.50;;;;;;5051188;28;20470;-82
2022/11/18 09:28:45;;;;;;;8.55;3.13;;;17.60;97.40;;;;;;5052143;28;20406;-83
2022/11/18 09:31:15;;;;;;;6.18;2.30;;;17.60;97.90;;;;;;5059702;28;20400;-82
2022/11/18 09:33:42;;;;;;;5.28;2.78;;;17.50;98.30;;;;;;5062837;28;20380;-85
2022/11/18 09:36:21;;;;;;;5.45;2.00;;;17.50;98.80;;;;;;5063157;28;20374;-81
2022/11/18 09:38:48;;;;;;;6.13;2.15;;;17.40;99.50;;;;;;5061637;28;20879;-90
2022/11/18 09:41:39;;;;;;;7.35;2.00;;;17.40;99.90;;;;;;5051533;28;20368;-82
2022/11/18 09:44:18;;;;;;;4.80;1.73;;;17.30;99.90;;;;;;5062850;22;20412;-79
2022/11/18 09:46:55;;;;;;;4.47;1.27;;;17.30;99.90;;;;;;5033225;28;20393;-78
2022/11/18 09:49:25;;;;;;;4.10;1.33;;;17.30;99.90;;;;;;5034104;28;20382;-87
2022/11/18 09:51:53;;;;;;;3.58;1.27;;;17.20;99.90;;;;;;5037326;28;20427;-88
2022/11/18 09:54:25;;;;;;;6.43;1.50;;;17.20;99.90;;;;;;5044564;28;20403;-78
2022/11/18 09:56:54;;;;;;;6.80;1.45;;;17.20;99.90;;;;;;5064150;28;20385;-80
2022/11/18 09:59:26;;;;;;;5.95;1.27;;;17.10;99.90;;;;;;5070234;28;20378;-91
2022/11/18 10:01:57;;;;;;;4.82;1.10;;;17.00;99.90;;;;;;5039076;28;20420;-86
2022/11/18 10:04:27;;;;;;;5.90;1.20;;;17.00;99.90;;;;;;5032340;28;20806;-79
2022/11/18 10:06:54;;;;;;;5.80;1.10;;;16.90;99.90;;;;;;5044716;28;20437;-81
2022/11/18 10:09:27;;;;;;;5.43;1.10;;;16.90;99.90;;;;;;5035739;28;20740;-89
2022/11/18 10:12:19;;;;;;;6.45;1.33;;;16.90;99.90;;;;;;5053433;28;20804;-80
2022/11/18 10:15:16;;;;;;;6.82;1.30;;;16.90;99.90;;;;;;5041060;28;20745;-79
2022/11/18 10:17:47;;;;;;;6.22;1.25;;;16.80;99.90;;;;;;5041073;28;20385;-79
2022/11/18 10:20:30;;;;;;;7.47;1.40;;;16.80;99.90;;;;;;5027673;28;20883;-82
2022/11/18 10:23:21;;;;;;;5.40;1.30;;;16.80;99.90;;;;;;5048218;28;20384;-83
2022/11/18 10:25:48;;;;;;;5.43;1.20;;;16.70;99.90;;;;;;5032709;28;20386;-85
2022/11/18 10:28:23;;;;;;;6.53;1.30;;;16.70;99.90;;;;;;5038837;28;20478;-79
2022/11/18 10:30:51;;;;;;;4.72;1.40;;;16.50;99.90;;;;;;5042639;28;20879;-79
2022/11/18 10:33:21;;;;;;;4.63;1.20;;;16.50;99.90;;;;;;5048724;28;20388;-79
2022/11/18 10:35:49;;;;;;;4.13;1.30;;;16.50;99.90;;;;;;5043988;28;20389;-80
2022/11/18 10:38:19;;;;;;;3.55;1.30;;;16.40;99.90;;;;;;5048014;28;20402;-79
2022/11/18 10:40:56;;;;;;;5.07;1.20;;;16.40;99.90;;;;;;5047125;28;20867;-79
2022/11/18 10:44:01;;;;;;;4.65;1.40;;;16.30;99.90;;;;;;5039848;28;20411;-83
2022/11/18 10:46:31;;;;;;;5.32;1.40;;;16.30;99.90;;;;;;4985495;28;20943;-80
2022/11/18 10:49:17;;;;;;;8.00;1.50;;;16.20;99.90;;;;;;4984260;28;20596;-79
2022/11/18 10:51:45;;;;;;;5.38;1.40;;;16.20;99.90;;;;;;4982097;28;20421;-83
2022/11/18 10:54:23;;;;;;;3.83;1.30;;;16.20;99.90;;;;;;4986901;28;20789;-84
2022/11/18 10:57:03;;;;;;;3.60;1.30;;;16.20;99.90;;;;;;4966249;28;20393;-85
2022/11/18 10:59:40;;;;;;;5.25;1.40;;;16.10;99.90;;;;;;4985117;28;20385;-79
2022/11/18 11:02:22;;;;;;;6.93;1.45;;;16.10;99.90;;;;;;4973519;28;20408;-83
2022/11/18 11:04:50;;;;;;;5.93;1.33;;;16.10;99.90;;;;;;4984830;28;20479;-80
2022/11/18 11:07:33;;;;;;;6.93;1.48;;;16.00;99.90;;;;;;4983441;28;20419;-78
2022/11/18 11:10:06;;;;;;;7.22;1.50;;;16.00;99.90;;;;;;5043416;22;20953;-84
2022/11/18 11:12:36;;;;;;;6.93;1.58;;;16.00;99.90;;;;;;5050069;28;20416;-92
2022/11/18 11:15:45;;;;;;;5.88;1.48;;;15.90;99.90;;;;;;5050860;28;20384;-91
2022/11/18 11:18:40;;;;;;;8.40;1.67;;;15.90;99.90;;;;;;4983570;28;20381;-92
2022/11/18 11:21:13;;;;;;;7.68;1.55;;;15.80;99.90;;;;;;4990770;28;20425;-89
2022/11/18 11:23:42;;;;;;;6.32;1.40;;;15.80;99.90;;;;;;4991662;28;20718;-90
2022/11/18 11:26:36;;;;;;;11.95;1.80;;;15.70;99.90;;;;;;4990707;28;20381;-85
2022/11/18 11:29:48;;;;;;;8.82;1.58;;;16.90;99.90;;;;;;4978738;28;20398;-82
2022/11/18 11:32:17;;;;;;;9.95;1.90;;;15.60;99.90;;;;;;5008802;22;20412;-78
2022/11/18 11:35:19;;;;;;;8.35;2.00;;;15.60;99.90;;;;;;5052383;28;20419;-79
2022/11/18 11:37:57;;;;;;;13.00;2.22;;;15.60;99.90;;;;;;5052127;28;20368;-81
2022/11/18 11:41:12;;;;;;;10.23;2.20;;;15.50;99.90;;;;;;5053119;28;20399;-90
2022/11/18 11:43:47;;;;;;;9.38;2.03;;;15.40;99.90;;;;;;4990122;28;20411;-84
2022/11/18 11:46:44;;;;;;;7.72;2.10;;;15.50;99.90;;;;;;4991351;28;20381;-78
2022/11/18 11:49:26;;;;;;;6.07;1.70;;;15.40;99.90;;;;;;4991638;28;20944;-81
2022/11/18 11:52:32;;;;;;;6.43;1.90;;;15.40;99.90;;;;;;4992606;28;20757;-87
2022/11/18 11:55:15;;;;;;;7.65;2.30;;;15.30;99.90;;;;;;4933008;29;20437;-92
2022/11/18 11:57:59;;;;;;;5.22;1.90;;;15.30;99.90;;;;;;4922251;29;20467;-82
2022/11/18 12:00:27;;;;;;;5.25;1.80;;;15.30;99.90;;;;;;4915604;29;20873;-78
2022/11/18 12:03:00;;;;;;;9.15;2.00;;;15.20;99.90;;;;;;4913665;29;20418;-78
2022/11/18 12:05:34;;;;;;;5.93;1.63;;;15.20;99.90;;;;;;4913404;29;20807;-78
2022/11/18 12:08:13;;;;;;;6.03;1.63;;;15.20;99.90;;;;;;4913243;29;20432;-80
2022/11/18 12:11:02;;;;;;;5.32;1.67;;;15.20;99.90;;;;;;4920882;29;20474;-78
2022/11/18 12:13:52;;;;;;;5.72;1.80;;;15.10;99.90;;;;;;4927211;28;20958;-79
2022/11/18 12:16:25;;;;;;;5.57;1.63;;;15.10;99.90;;;;;;4971009;28;20398;-78
2022/11/18 12:18:59;;;;;;;5.03;1.70;;;15.10;99.90;;;;;;4981709;28;20573;-79
2022/11/18 12:21:46;;;;;;;4.85;1.55;;;15.10;99.90;;;;;;4970292;28;20417;-82
2022/11/18 12:24:36;;;;;;;5.00;1.40;;;15.00;99.90;;;;;;4984012;28;20813;-82
2022/11/18 12:27:04;;;;;;;4.97;1.50;;;14.90;99.90;;;;;;4990845;28;20385;-78
2022/11/18 12:29:40;;;;;;;6.22;1.60;;;14.80;99.90;;;;;;4999860;28;20399;-78
2022/11/18 12:32:44;;;;;;;7.43;1.70;;;14.80;99.90;;;;;;5064156;28;20457;-78
2022/11/18 12:35:11;;;;;;;5.72;1.63;;;14.70;99.90;;;;;;5053025;28;20419;-78
2022/11/18 12:37:40;;;;;;;6.63;1.70;;;14.70;99.90;;;;;;5071176;28;20443;-78
2022/11/18 12:40:09;;;;;;;5.72;1.85;;;14.70;99.90;;;;;;5070108;28;20382;-79
2022/11/18 12:45:41;;;;;;;10.10;1.97;;;14.60;99.90;;;;;;5045465;28;20424;-85
2022/11/18 12:48:23;;;;;;;11.25;2.00;;;14.60;99.90;;;;;;5065073;28;20382;-78
2022/11/18 12:50:56;;;;;;;10.02;2.10;;;14.60;99.90;;;;;;5056803;28;20786;-79
2022/11/18 12:53:43;;;;;;;9.95;1.90;;;15.30;99.90;;;;;;5059923;28;20419;-78
2022/11/18 12:56:23;;;;;;;13.00;2.42;;;14.60;99.90;;;;;;5065790;28;20378;-79
2022/11/18 12:58:55;;;;;;;8.40;2.17;;;14.60;99.90;;;;;;5055227;28;20794;-83
2022/11/18 13:01:28;;;;;;;12.75;2.30;;;14.60;99.90;;;;;;5059682;28;20417;-78
2022/11/18 13:04:15;;;;;;;13.93;2.20;;;14.60;99.90;;;;;;5062110;28;20427;-80
2022/11/18 13:06:43;;;;;;;10.17;2.30;;;14.60;99.90;;;;;;5068508;28;20382;-78
2022/11/18 13:09:29;;;;;;;11.40;2.25;;;14.60;99.90;;;;;;5063464;28;20423;-84
2022/11/18 13:12:00;;;;;;;13.65;2.33;;;14.60;99.90;;;;;;5055560;28;20890;-78
2022/11/18 13:20:26;;;;;;;10.52;2.22;;;14.40;99.90;;;;;;5057795;28;20392;-82
2022/11/18 13:25:48;;;;;;;7.20;2.30;;;14.30;99.90;;;;;;5071405;28;20369;-85
2022/11/18 13:28:36;;;;;;;6.53;2.25;;;14.20;99.90;;;;;;5059822;28;20522;-85
2022/11/18 13:31:24;;;;;;;7.70;2.08;;;14.20;99.90;;;;;;5057111;28;20410;-85
2022/11/18 13:33:53;;;;;;;5.88;2.13;;;14.10;99.90;;;;;;5067345;28;20874;-85
2022/11/18 13:36:25;;;;;;;8.00;2.15;;;14.10;99.90;;;;;;5065268;28;20958;-79
2022/11/18 13:39:04;;;;;;;6.57;1.90;;;14.10;99.90;;;;;;5056845;28;20402;-80
2022/11/18 13:41:33;;;;;;;5.72;1.80;;;14.10;99.90;;;;;;5065492;28;20433;-85